createdAt,value
2022-10-23T00:01:15.576Z,6.20
2022-10-23T00:03:43.819Z,6.40
2022-10-23T00:06:12.381Z,6.37
2022-10-23T00:08:40.306Z,6.30
2022-10-23T00:11:13.656Z,6.90
2022-10-23T00:13:40.889Z,6.33
2022-10-23T00:16:09.469Z,6.13
2022-10-23T00:18:38.046Z,6.70
2022-10-23T00:21:07.497Z,6.27
2022-10-23T00:23:35.203Z,6.43
2022-10-23T00:26:03.246Z,6.43
2022-10-23T00:28:30.684Z,7.00
2022-10-23T00:30:57.895Z,6.30
2022-10-23T00:33:25.050Z,6.23
2022-10-23T00:35:52.320Z,6.00
2022-10-23T00:38:19.461Z,5.90
2022-10-23T00:40:47.271Z,6.00
2022-10-23T00:43:23.844Z,5.60
2022-10-23T00:45:51.133Z,5.80
2022-10-23T00:48:19.113Z,5.40
2022-10-23T00:50:48.524Z,5.67
2022-10-23T00:53:17.505Z,5.50
2022-10-23T00:55:47.024Z,5.33
2022-10-23T00:58:16.025Z,4.93
2022-10-23T01:00:47.335Z,5.10
2022-10-23T01:03:16.558Z,5.20
2022-10-23T01:05:50.411Z,5.27
2022-10-23T01:08:39.694Z,5.20
2022-10-23T01:11:20.653Z,5.20
2022-10-23T01:14:11.959Z,5.00
2022-10-23T01:17:04.672Z,5.13
2022-10-23T01:20:00.118Z,5.20
2022-10-23T01:22:55.232Z,5.07
2022-10-23T01:25:40.455Z,5.30
2022-10-23T01:28:14.973Z,5.07
2022-10-23T01:30:45.118Z,5.40
2022-10-23T01:33:24.902Z,5.70
2022-10-23T01:36:06.265Z,5.00
2022-10-23T01:38:43.693Z,5.17
2022-10-23T01:41:17.243Z,5.27
2022-10-23T01:43:52.478Z,5.10
2022-10-23T01:46:21.599Z,5.50
2022-10-23T01:48:52.702Z,6.03
2022-10-23T01:51:22.238Z,6.07
2022-10-23T01:53:52.743Z,6.13
2022-10-23T01:56:23.179Z,6.03
2022-10-23T01:58:53.722Z,6.43
2022-10-23T02:01:24.818Z,5.87
2022-10-23T02:03:53.737Z,6.30
2022-10-23T02:06:21.012Z,5.97
2022-10-23T02:08:48.481Z,6.57
2022-10-23T02:11:21.275Z,6.80
2022-10-23T02:14:03.934Z,6.87
2022-10-23T02:16:47.785Z,6.07
2022-10-23T02:19:30.071Z,6.73
2022-10-23T02:22:11.160Z,6.77
2022-10-23T02:24:51.010Z,6.30
2022-10-23T02:27:39.616Z,7.40
2022-10-23T02:30:12.326Z,7.30
2022-10-23T02:32:46.162Z,7.07
2022-10-23T02:35:13.779Z,6.57
2022-10-23T02:37:41.339Z,7.47
2022-10-23T02:40:10.215Z,6.93
2022-10-23T02:42:47.613Z,6.70
2022-10-23T02:45:23.683Z,7.47
2022-10-23T02:48:06.103Z,7.43
2022-10-23T02:50:46.700Z,7.67
2022-10-23T02:53:36.544Z,7.53
2022-10-23T02:56:11.204Z,7.33
2022-10-23T02:58:47.793Z,6.73
2022-10-23T03:01:22.971Z,7.10
2022-10-23T03:03:56.977Z,8.07
2022-10-23T03:06:25.130Z,7.73
2022-10-23T03:09:02.121Z,6.87
2022-10-23T03:11:29.371Z,7.10
2022-10-23T03:13:56.677Z,7.60
2022-10-23T03:16:24.243Z,7.70
2022-10-23T03:18:51.495Z,7.67
2022-10-23T03:21:18.949Z,7.97
2022-10-23T03:23:46.447Z,8.13
2022-10-23T03:26:13.580Z,8.40
2022-10-23T03:28:40.785Z,7.90
2022-10-23T03:31:07.974Z,7.37
2022-10-23T03:33:35.138Z,8.43
2022-10-23T03:36:02.344Z,7.70
2022-10-23T03:38:29.585Z,7.93
2022-10-23T03:40:56.784Z,7.73
2022-10-23T03:43:23.925Z,7.97
2022-10-23T03:45:52.130Z,7.03
2022-10-23T03:48:19.313Z,7.70
2022-10-23T03:50:46.511Z,7.53
2022-10-23T03:53:13.672Z,7.03
2022-10-23T03:55:40.945Z,7.47
2022-10-23T03:58:08.266Z,6.43
2022-10-23T04:00:35.501Z,6.87
2022-10-23T04:03:02.952Z,7.73
2022-10-23T04:05:30.148Z,7.27
2022-10-23T04:07:58.044Z,7.33
2022-10-23T04:10:25.202Z,6.93
2022-10-23T04:12:52.515Z,7.17
2022-10-23T04:15:19.856Z,7.87
2022-10-23T04:17:47.122Z,9.30
2022-10-23T04:20:14.470Z,7.83
2022-10-23T04:22:41.970Z,8.00
2022-10-23T04:25:09.782Z,7.60
2022-10-23T04:27:37.115Z,8.13
2022-10-23T04:30:05.078Z,7.90
2022-10-23T04:32:32.171Z,8.50
2022-10-23T04:34:59.439Z,8.50
2022-10-23T04:37:28.456Z,8.37
2022-10-23T04:39:55.605Z,8.33
2022-10-23T04:42:22.783Z,7.70
2022-10-23T04:44:49.942Z,7.90
2022-10-23T04:47:17.076Z,7.40
2022-10-23T04:49:44.345Z,7.47
2022-10-23T04:52:11.633Z,7.73
2022-10-23T04:54:39.891Z,8.40
2022-10-23T04:57:07.312Z,7.00
2022-10-23T04:59:35.204Z,7.50
2022-10-23T05:02:02.565Z,6.63
2022-10-23T05:04:29.773Z,7.20
2022-10-23T05:06:57.060Z,7.43
2022-10-23T05:09:24.316Z,6.33
2022-10-23T05:11:51.574Z,7.00
2022-10-23T05:14:22.088Z,6.10
2022-10-23T05:17:03.387Z,5.83
2022-10-23T05:19:36.627Z,7.37
2022-10-23T05:22:06.053Z,7.00
2022-10-23T05:24:33.227Z,6.63
2022-10-23T05:27:00.441Z,6.47
2022-10-23T05:29:27.984Z,6.57
2022-10-23T05:32:00.735Z,6.70
2022-10-23T05:34:29.436Z,7.37
2022-10-23T05:36:56.847Z,6.60
2022-10-23T05:39:24.755Z,7.10
2022-10-23T05:41:52.507Z,6.37
2022-10-23T05:44:19.620Z,6.80
2022-10-23T05:46:47.365Z,6.50
2022-10-23T05:49:14.567Z,7.73
2022-10-23T05:51:42.193Z,7.23
2022-10-23T05:54:10.257Z,6.30
2022-10-23T05:56:41.734Z,6.33
2022-10-23T05:59:10.315Z,6.30
2022-10-23T06:01:37.774Z,6.53
2022-10-23T06:04:06.014Z,6.57
2022-10-23T06:06:33.222Z,6.17
2022-10-23T06:09:00.426Z,6.80
2022-10-23T06:11:27.934Z,6.63
2022-10-23T06:13:55.155Z,6.60
2022-10-23T06:16:27.545Z,6.17
2022-10-23T06:18:55.259Z,5.67
2022-10-23T06:21:22.465Z,6.00
2022-10-23T06:23:49.940Z,5.80
2022-10-23T06:26:19.042Z,5.83
2022-10-23T06:28:46.606Z,5.83
2022-10-23T06:31:16.436Z,7.03
2022-10-23T06:33:43.640Z,5.70
2022-10-23T06:36:11.006Z,5.93
2022-10-23T06:38:40.830Z,6.47
2022-10-23T06:41:15.322Z,5.60
2022-10-23T06:43:42.512Z,6.13
2022-10-23T06:46:10.381Z,5.13
2022-10-23T06:48:37.737Z,5.60
2022-10-23T06:51:08.133Z,5.47
2022-10-23T06:53:36.227Z,6.37
2022-10-23T06:56:05.401Z,6.57
2022-10-23T06:58:34.193Z,5.20
2022-10-23T07:01:07.378Z,5.10
2022-10-23T07:03:36.049Z,5.50
2022-10-23T07:06:06.360Z,5.73
2022-10-23T07:08:34.107Z,5.00
2022-10-23T07:11:06.989Z,5.07
2022-10-23T07:13:35.530Z,4.83
2022-10-23T07:16:18.021Z,4.57
2022-10-23T07:18:46.673Z,5.00
2022-10-23T07:21:14.417Z,4.90
2022-10-23T07:23:41.755Z,4.70
2022-10-23T07:26:15.376Z,4.20
2022-10-23T07:28:46.956Z,5.73
2022-10-23T07:31:14.679Z,4.17
2022-10-23T07:33:41.978Z,4.30
2022-10-23T07:36:10.581Z,5.00
2022-10-23T07:38:37.839Z,4.73
2022-10-23T07:41:08.866Z,5.50
2022-10-23T07:43:38.875Z,4.93
2022-10-23T07:46:08.487Z,5.27
2022-10-23T07:48:36.643Z,5.30
2022-10-23T07:51:14.334Z,5.27
2022-10-23T07:53:41.651Z,4.90
2022-10-23T07:56:26.683Z,4.80
2022-10-23T07:58:54.312Z,4.50
2022-10-23T08:01:47.349Z,4.30
2022-10-23T08:04:14.821Z,4.07
2022-10-23T08:06:42.048Z,3.70
2022-10-23T08:09:09.405Z,5.43
2022-10-23T08:11:36.751Z,4.33
2022-10-23T08:14:06.057Z,3.50
2022-10-23T08:16:35.370Z,4.20
2022-10-23T08:19:03.789Z,3.77
2022-10-23T08:21:31.280Z,3.10
2022-10-23T08:23:59.848Z,3.30
2022-10-23T08:26:30.940Z,3.80
2022-10-23T08:29:01.623Z,3.47
2022-10-23T08:31:28.812Z,3.13
2022-10-23T08:33:56.018Z,3.13
2022-10-23T08:36:28.217Z,2.93
2022-10-23T08:38:57.439Z,2.70
2022-10-23T08:41:40.971Z,3.17
2022-10-23T08:44:19.732Z,3.10
2022-10-23T08:47:05.261Z,3.00
2022-10-23T08:50:02.428Z,3.13
2022-10-23T08:52:39.688Z,3.27
2022-10-23T08:55:27.774Z,2.90
2022-10-23T08:58:23.854Z,2.93
2022-10-23T09:00:52.255Z,4.30
2022-10-23T09:03:19.691Z,7.63
2022-10-23T09:06:16.143Z,3.57
2022-10-23T09:08:55.519Z,3.97
2022-10-23T09:11:28.609Z,2.90
2022-10-23T09:14:27.908Z,2.97
2022-10-23T09:17:04.026Z,3.30
2022-10-23T09:19:32.238Z,3.20
2022-10-23T09:22:00.159Z,3.10
2022-10-23T09:24:31.840Z,3.20
2022-10-23T09:27:00.827Z,3.07
2022-10-23T09:29:36.189Z,3.10
2022-10-23T09:32:07.356Z,3.07
2022-10-23T09:34:35.382Z,2.63
2022-10-23T09:37:17.490Z,2.60
2022-10-23T09:39:44.809Z,2.70
2022-10-23T09:42:26.126Z,2.77
2022-10-23T09:44:55.099Z,2.60
2022-10-23T09:47:24.961Z,2.70
2022-10-23T09:49:54.695Z,2.80
2022-10-23T09:52:40.671Z,2.90
2022-10-23T09:55:24.283Z,2.73
2022-10-23T09:57:53.199Z,2.90
2022-10-23T10:00:26.241Z,2.73
2022-10-23T10:03:02.628Z,2.73
2022-10-23T10:05:35.259Z,3.17
2022-10-23T10:08:11.998Z,2.90
2022-10-23T10:10:46.022Z,3.17
2022-10-23T10:13:38.502Z,2.90
2022-10-23T10:16:21.431Z,2.90
2022-10-23T10:19:03.682Z,2.63
2022-10-23T10:21:41.349Z,2.53
2022-10-23T10:24:23.450Z,2.63
2022-10-23T10:27:00.210Z,2.80
2022-10-23T10:29:36.832Z,3.13
2022-10-23T10:32:22.340Z,3.40
2022-10-23T10:35:01.610Z,3.40
2022-10-23T10:38:05.879Z,3.33
2022-10-23T10:40:35.529Z,3.00
2022-10-23T10:43:08.610Z,2.90
2022-10-23T10:45:51.687Z,2.70
2022-10-23T10:48:37.402Z,2.97
2022-10-23T10:51:07.352Z,3.07
2022-10-23T10:53:40.467Z,2.90
2022-10-23T10:56:14.656Z,2.90
2022-10-23T10:58:54.964Z,2.83
2022-10-23T11:01:31.780Z,3.00
2022-10-23T11:04:36.499Z,2.40
2022-10-23T11:07:09.268Z,2.03
2022-10-23T11:09:38.677Z,2.17
2022-10-23T11:12:06.001Z,2.10
2022-10-23T11:14:35.087Z,1.83
2022-10-23T11:17:35.360Z,2.00
2022-10-23T11:20:40.021Z,2.10
2022-10-23T11:23:26.013Z,2.10
2022-10-23T11:26:08.370Z,1.87
2022-10-23T11:29:13.080Z,2.20
2022-10-23T11:32:19.239Z,2.20
2022-10-23T11:34:53.868Z,2.00
2022-10-23T11:37:22.908Z,2.10
2022-10-23T11:40:08.255Z,2.20
2022-10-23T11:42:55.709Z,2.07
2022-10-23T11:45:41.021Z,2.00
2022-10-23T11:48:14.471Z,2.00
2022-10-23T11:50:55.099Z,2.30
2022-10-23T11:53:27.109Z,2.37
2022-10-23T11:56:02.486Z,1.90
2022-10-23T11:58:56.452Z,2.00
2022-10-23T12:01:45.603Z,1.93
2022-10-23T12:04:12.956Z,2.20
2022-10-23T12:06:51.069Z,1.90
2022-10-23T12:09:26.832Z,1.77
2022-10-23T12:12:15.891Z,1.97
2022-10-23T12:14:50.981Z,2.10
2022-10-23T12:17:32.624Z,2.27
2022-10-23T12:20:08.950Z,2.07
2022-10-23T12:22:50.930Z,1.80
2022-10-23T12:25:26.633Z,2.00
2022-10-23T12:28:18.452Z,1.70
2022-10-23T12:31:28.339Z,1.70
2022-10-23T12:34:07.184Z,1.63
2022-10-23T12:36:59.862Z,1.50
2022-10-23T12:39:30.961Z,1.47
2022-10-23T12:41:59.798Z,1.63
2022-10-23T12:44:27.334Z,1.70
2022-10-23T12:47:01.092Z,1.57
2022-10-23T12:49:34.306Z,1.43
2022-10-23T12:52:04.846Z,1.87
2022-10-23T12:54:38.474Z,1.87
2022-10-23T12:57:26.077Z,1.50
2022-10-23T13:00:00.893Z,1.63
2022-10-23T13:02:30.509Z,1.60
2022-10-23T13:05:03.932Z,1.70
2022-10-23T13:07:37.249Z,1.67
2022-10-23T13:10:05.875Z,1.60
2022-10-23T13:12:38.998Z,1.53
2022-10-23T13:15:10.943Z,1.60
2022-10-23T13:17:41.271Z,1.63
2022-10-23T13:20:17.807Z,1.40
2022-10-23T13:23:00.468Z,1.50
2022-10-23T13:25:36.830Z,1.70
2022-10-23T13:28:23.296Z,1.53
2022-10-23T13:31:05.768Z,1.60
2022-10-23T13:33:38.920Z,1.43
2022-10-23T13:36:19.724Z,1.63
2022-10-23T13:38:48.606Z,1.60
2022-10-23T13:41:20.175Z,1.63
2022-10-23T13:43:48.733Z,1.50
2022-10-23T13:46:22.007Z,1.70
2022-10-23T13:48:49.594Z,1.77
2022-10-23T13:51:23.913Z,1.77
2022-10-23T13:53:51.855Z,1.63
2022-10-23T13:56:21.721Z,1.87
2022-10-23T13:58:49.346Z,1.80
2022-10-23T14:01:24.355Z,1.50
2022-10-23T14:03:53.034Z,1.50
2022-10-23T14:06:20.742Z,1.60
2022-10-23T14:08:48.347Z,1.63
2022-10-23T14:11:17.327Z,1.60
2022-10-23T14:13:44.839Z,1.70
2022-10-23T14:16:17.970Z,1.50
2022-10-23T14:18:45.351Z,1.70
2022-10-23T14:21:15.564Z,1.80
2022-10-23T14:23:42.845Z,1.60
2022-10-23T14:26:12.802Z,1.50
2022-10-23T14:28:43.370Z,1.67
2022-10-23T14:31:13.617Z,1.80
2022-10-23T14:33:41.685Z,1.70
2022-10-23T14:36:09.492Z,1.70
2022-10-23T14:38:37.092Z,1.70
2022-10-23T14:41:10.331Z,1.70
2022-10-23T14:43:38.624Z,1.70
2022-10-23T14:46:14.661Z,1.77
2022-10-23T14:48:45.485Z,1.57
2022-10-23T14:51:30.347Z,1.70
2022-10-23T14:54:01.754Z,1.50
2022-10-23T14:56:30.959Z,1.87
2022-10-23T14:59:03.056Z,1.93
2022-10-23T15:01:36.102Z,1.70
2022-10-23T15:04:04.321Z,1.77
2022-10-23T15:06:32.742Z,1.97
2022-10-23T15:09:00.198Z,1.70
2022-10-23T15:11:27.858Z,1.70
2022-10-23T15:13:56.035Z,1.80
2022-10-23T15:16:23.802Z,1.67
2022-10-23T15:18:51.579Z,2.00
2022-10-23T15:21:19.075Z,1.87
2022-10-23T15:23:47.344Z,1.80
2022-10-23T15:26:23.831Z,1.77
2022-10-23T15:28:56.001Z,2.17
2022-10-23T15:31:37.665Z,1.90
2022-10-23T15:34:08.427Z,1.80
2022-10-23T15:36:35.733Z,1.70
2022-10-23T15:39:05.960Z,1.90
2022-10-23T15:41:34.574Z,1.60
2022-10-23T15:44:03.350Z,1.93
2022-10-23T15:46:30.642Z,1.77
2022-10-23T15:48:58.009Z,1.50
2022-10-23T15:51:25.579Z,1.80
2022-10-23T15:53:52.943Z,1.90
2022-10-23T15:56:20.176Z,1.70
2022-10-23T15:58:47.498Z,1.70
2022-10-23T16:01:15.186Z,1.70
2022-10-23T16:03:43.803Z,1.70
2022-10-23T16:06:16.938Z,1.90
2022-10-23T16:08:46.184Z,1.87
2022-10-23T16:11:28.323Z,1.67
2022-10-23T16:13:57.884Z,2.13
2022-10-23T16:16:29.243Z,2.00
2022-10-23T16:19:00.630Z,1.77
2022-10-23T16:21:30.833Z,1.97
2022-10-23T16:24:00.283Z,1.90
2022-10-23T16:26:28.591Z,1.60
2022-10-23T16:29:02.117Z,1.87
2022-10-23T16:31:30.116Z,1.90
2022-10-23T16:33:59.968Z,1.70
2022-10-23T16:36:28.815Z,1.77
2022-10-23T16:38:58.263Z,1.73
2022-10-23T16:41:26.401Z,1.50
2022-10-23T16:43:53.605Z,1.60
2022-10-23T16:46:24.016Z,2.03
2022-10-23T16:48:52.999Z,2.10
2022-10-23T16:51:28.381Z,1.97
2022-10-23T16:53:57.655Z,1.90
2022-10-23T16:56:30.507Z,1.73
2022-10-23T17:01:35.226Z,1.73
2022-10-23T17:04:03.413Z,1.83
2022-10-23T17:06:32.316Z,1.87
2022-10-23T17:09:07.021Z,1.80
2022-10-23T17:11:40.231Z,1.80
2022-10-23T17:14:18.428Z,2.10
2022-10-23T17:16:52.799Z,1.80
2022-10-23T17:19:43.872Z,2.20
2022-10-23T17:22:16.081Z,1.90
2022-10-23T17:24:50.140Z,2.00
2022-10-23T17:27:22.678Z,2.00
2022-10-23T17:29:50.966Z,2.30
2022-10-23T17:34:48.286Z,2.60
2022-10-23T17:37:18.550Z,2.47
2022-10-23T17:39:47.991Z,2.90
2022-10-23T17:42:19.769Z,3.00
2022-10-23T17:44:47.885Z,2.90
2022-10-23T17:47:17.982Z,3.27
2022-10-23T17:49:48.589Z,2.80
2022-10-23T17:52:18.235Z,2.93
2022-10-23T17:54:46.543Z,2.83
2022-10-23T17:57:14.053Z,3.10
2022-10-23T17:59:41.751Z,2.60
2022-10-23T18:02:13.265Z,3.13
2022-10-23T18:04:40.766Z,3.53
2022-10-23T18:07:08.243Z,3.57
2022-10-23T18:09:35.734Z,2.87
2022-10-23T18:12:04.669Z,2.90
2022-10-23T18:14:37.328Z,3.00
2022-10-23T18:17:06.766Z,2.50
2022-10-23T18:19:36.692Z,2.67
2022-10-23T18:22:04.816Z,2.50
2022-10-23T18:24:32.281Z,2.50
2022-10-23T18:27:00.086Z,2.73
2022-10-23T18:29:28.903Z,2.50
2022-10-23T18:31:58.692Z,2.40
2022-10-23T18:34:32.679Z,2.40
2022-10-23T18:37:07.287Z,2.20
2022-10-23T18:39:37.508Z,2.30
2022-10-23T18:42:06.235Z,2.13
2022-10-23T18:44:34.561Z,2.40
2022-10-23T18:47:04.596Z,2.20
2022-10-23T18:49:33.537Z,2.23
2022-10-23T18:52:02.161Z,2.40
2022-10-23T18:54:32.052Z,2.43
2022-10-23T18:57:01.558Z,2.23
2022-10-23T18:59:29.597Z,2.20
2022-10-23T19:01:58.080Z,2.30
2022-10-23T19:04:27.412Z,2.13
2022-10-23T19:06:55.483Z,2.23
2022-10-23T19:09:23.945Z,2.10
2022-10-23T19:11:51.806Z,1.93
2022-10-23T19:14:21.055Z,2.17
2022-10-23T19:17:03.326Z,2.03
2022-10-23T19:19:35.570Z,2.37
2022-10-23T19:22:05.300Z,1.93
2022-10-23T19:24:40.456Z,2.00
2022-10-23T19:27:08.791Z,2.00
2022-10-23T19:29:41.035Z,2.30
2022-10-23T19:32:08.688Z,2.20
2022-10-23T19:34:36.290Z,2.20
2022-10-23T19:37:04.012Z,2.20
2022-10-23T19:39:32.117Z,2.20
2022-10-23T19:42:00.478Z,2.07
2022-10-23T19:44:27.832Z,1.77
2022-10-23T19:46:55.138Z,2.30
2022-10-23T19:49:24.025Z,2.10
2022-10-23T19:51:51.705Z,2.00
2022-10-23T19:54:20.895Z,1.90
2022-10-23T19:56:49.283Z,2.10
2022-10-23T19:59:17.251Z,2.07
2022-10-23T20:01:47.829Z,2.00
2022-10-23T20:04:17.668Z,1.87
2022-10-23T20:06:45.128Z,1.90
2022-10-23T20:09:12.692Z,1.90
2022-10-23T20:11:40.379Z,1.90
2022-10-23T20:14:08.221Z,1.97
2022-10-23T20:16:37.817Z,2.30
2022-10-23T20:19:07.461Z,2.10
2022-10-23T20:21:39.309Z,2.10
2022-10-23T20:24:07.148Z,2.27
2022-10-23T20:26:40.431Z,2.20
2022-10-23T20:29:07.779Z,1.87
2022-10-23T20:31:36.585Z,2.03
2022-10-23T20:34:04.324Z,1.80
2022-10-23T20:36:34.447Z,1.83
2022-10-23T20:39:04.818Z,1.93
2022-10-23T20:41:33.868Z,2.07
2022-10-23T20:44:01.349Z,2.30
2022-10-23T20:46:28.510Z,2.53
2022-10-23T20:48:55.874Z,2.20
2022-10-23T20:51:24.442Z,1.90
2022-10-23T20:53:53.373Z,2.03
2022-10-23T20:56:30.393Z,1.83
2022-10-23T20:59:06.426Z,2.03
2022-10-23T21:01:34.729Z,2.30
2022-10-23T21:04:03.465Z,2.20
2022-10-23T21:06:45.642Z,2.37
2022-10-23T21:09:19.168Z,2.00
2022-10-23T21:11:46.699Z,2.50
2022-10-23T21:14:13.971Z,2.73
2022-10-23T21:16:44.440Z,2.70
2022-10-23T21:19:16.142Z,2.40
2022-10-23T21:21:44.068Z,2.30
2022-10-23T21:24:15.192Z,2.50
2022-10-23T21:26:42.674Z,2.20
2022-10-23T21:29:19.049Z,2.40
2022-10-23T21:31:52.771Z,2.60
2022-10-23T21:34:20.107Z,2.90
2022-10-23T21:37:11.944Z,2.77
2022-10-23T21:39:34.666Z,2.40
2022-10-23T21:42:01.869Z,3.03
2022-10-23T21:44:29.114Z,2.70
2022-10-23T21:46:56.408Z,2.80
2022-10-23T21:49:23.753Z,2.83
2022-10-23T21:51:51.043Z,3.17
2022-10-23T21:54:18.327Z,2.53
2022-10-23T21:56:48.803Z,2.60
2022-10-23T21:59:20.186Z,2.27
2022-10-23T22:01:49.044Z,2.40
2022-10-23T22:04:18.294Z,2.37
2022-10-23T22:06:47.412Z,2.80
2022-10-23T22:09:19.009Z,2.20
2022-10-23T22:11:46.897Z,2.50
2022-10-23T22:14:14.049Z,2.53
2022-10-23T22:16:42.330Z,2.17
2022-10-23T22:19:13.371Z,2.47
2022-10-23T22:21:40.887Z,2.40
2022-10-23T22:24:08.830Z,2.03
2022-10-23T22:26:38.457Z,2.10
2022-10-23T22:29:12.269Z,2.03
2022-10-23T22:31:44.038Z,2.13
2022-10-23T22:34:33.932Z,2.00
2022-10-23T22:37:05.142Z,1.67
2022-10-23T22:39:32.337Z,2.00
2022-10-23T22:41:59.587Z,2.60
2022-10-23T22:44:26.917Z,2.50
2022-10-23T22:46:54.455Z,2.50
2022-10-23T22:49:21.770Z,3.13
2022-10-23T22:51:49.182Z,3.17
2022-10-23T22:54:16.459Z,2.90
2022-10-23T22:56:43.713Z,3.07
2022-10-23T22:59:11.151Z,2.57
2022-10-23T23:01:41.708Z,2.90
2022-10-23T23:04:25.989Z,2.60
2022-10-23T23:06:56.601Z,3.07
2022-10-23T23:09:23.921Z,2.80
2022-10-23T23:11:51.980Z,2.43
2022-10-23T23:14:23.570Z,2.60
2022-10-23T23:16:53.284Z,2.60
2022-10-23T23:19:23.067Z,2.67
2022-10-23T23:21:50.518Z,2.00
2022-10-23T23:24:18.214Z,2.87
2022-10-23T23:26:45.378Z,2.77
2022-10-23T23:29:13.137Z,2.60
2022-10-23T23:31:40.697Z,2.97
2022-10-23T23:34:07.894Z,2.57
2022-10-23T23:36:35.400Z,3.07
2022-10-23T23:41:35.437Z,2.50
2022-10-23T23:44:02.682Z,2.57
2022-10-23T23:46:29.935Z,2.60
2022-10-23T23:48:57.289Z,2.63
2022-10-23T23:51:25.906Z,3.27
2022-10-23T23:53:53.502Z,3.10
2022-10-23T23:56:21.724Z,3.13
2022-10-23T23:58:49.154Z,2.77
